createdAt,value
2023-03-23T00:01:21.295Z,81.12
2023-03-23T00:03:50.945Z,80.85
2023-03-23T00:06:22.098Z,80.89
2023-03-23T00:08:54.213Z,80.74
2023-03-23T00:11:30.924Z,80.34
2023-03-23T00:14:02.159Z,79.98
2023-03-23T00:16:34.407Z,80.09
2023-03-23T00:19:07.468Z,80.19
2023-03-23T00:21:36.863Z,80.37
2023-03-23T00:24:09.577Z,79.72
2023-03-23T00:26:48.309Z,80.35
2023-03-23T00:29:22.738Z,80.29
2023-03-23T00:31:50.346Z,80.07
2023-03-23T00:34:20.359Z,80.50
2023-03-23T00:36:52.483Z,80.35
2023-03-23T00:39:19.372Z,80.86
2023-03-23T00:41:48.435Z,80.75
2023-03-23T00:44:18.022Z,81.06
2023-03-23T00:46:50.748Z,80.82
2023-03-23T00:49:19.936Z,81.11
2023-03-23T00:51:49.031Z,80.77
2023-03-23T00:54:15.730Z,81.31
2023-03-23T00:56:42.395Z,81.44
2023-03-23T00:59:09.397Z,81.32
2023-03-23T01:01:36.666Z,81.49
2023-03-23T01:04:05.622Z,81.46
2023-03-23T01:06:39.974Z,81.09
2023-03-23T01:09:12.792Z,81.16
2023-03-23T01:11:39.673Z,81.05
2023-03-23T01:14:06.787Z,80.82
2023-03-23T01:16:33.575Z,80.94
2023-03-23T01:19:00.626Z,80.59
2023-03-23T01:21:27.458Z,80.80
2023-03-23T01:23:54.147Z,80.99
2023-03-23T01:26:24.292Z,80.75
2023-03-23T01:28:51.294Z,80.84
2023-03-23T01:31:21.750Z,80.84
2023-03-23T01:33:51.963Z,80.98
2023-03-23T01:36:22.103Z,80.63
2023-03-23T01:38:50.302Z,80.55
2023-03-23T01:41:18.589Z,80.13
2023-03-23T01:44:17.633Z,80.51
2023-03-23T01:46:45.403Z,79.78
2023-03-23T01:49:16.996Z,80.39
2023-03-23T01:51:56.840Z,80.24
2023-03-23T01:54:28.240Z,80.24
2023-03-23T01:56:55.141Z,80.40
2023-03-23T01:59:24.834Z,80.54
2023-03-23T02:01:53.577Z,80.34
2023-03-23T02:04:21.664Z,80.31
2023-03-23T02:06:51.766Z,80.45
2023-03-23T02:09:19.031Z,80.77
2023-03-23T02:11:54.152Z,80.68
2023-03-23T02:14:22.939Z,80.95
2023-03-23T02:17:31.165Z,81.33
2023-03-23T02:20:28.658Z,81.77
2023-03-23T02:22:58.170Z,82.66
2023-03-23T02:25:27.582Z,82.28
2023-03-23T02:28:07.083Z,82.84
2023-03-23T02:30:52.911Z,82.73
2023-03-23T02:33:25.363Z,82.97
2023-03-23T02:36:14.728Z,83.51
2023-03-23T02:38:51.912Z,83.98
2023-03-23T02:41:25.336Z,83.90
2023-03-23T02:43:56.354Z,83.67
2023-03-23T02:46:23.529Z,84.12
2023-03-23T02:48:52.481Z,84.48
2023-03-23T02:51:22.119Z,84.51
2023-03-23T02:53:51.814Z,84.37
2023-03-23T02:56:19.934Z,84.61
2023-03-23T02:58:46.656Z,84.15
2023-03-23T03:01:26.897Z,84.34
2023-03-23T03:03:57.601Z,84.52
2023-03-23T03:06:46.009Z,84.49
2023-03-23T03:09:37.960Z,84.45
2023-03-23T03:12:19.679Z,84.23
2023-03-23T03:14:59.958Z,84.08
2023-03-23T03:17:29.320Z,84.14
2023-03-23T03:20:09.139Z,83.74
2023-03-23T03:22:39.139Z,83.81
2023-03-23T03:25:18.224Z,83.49
2023-03-23T03:27:50.389Z,83.21
2023-03-23T03:30:21.509Z,82.97
2023-03-23T03:32:54.438Z,83.00
2023-03-23T03:35:24.289Z,82.48
2023-03-23T03:37:52.033Z,82.30
2023-03-23T03:40:22.109Z,82.28
2023-03-23T03:42:48.990Z,82.31
2023-03-23T03:45:19.580Z,82.33
2023-03-23T03:47:46.738Z,82.26
2023-03-23T03:50:15.950Z,82.01
2023-03-23T03:52:42.797Z,82.08
2023-03-23T03:55:11.169Z,82.08
2023-03-23T03:57:38.111Z,81.92
2023-03-23T04:00:16.518Z,81.95
2023-03-23T04:02:48.653Z,81.85
2023-03-23T04:05:15.425Z,81.73
2023-03-23T04:07:43.098Z,81.74
2023-03-23T04:10:12.892Z,82.10
2023-03-23T04:12:59.580Z,81.61
2023-03-23T04:15:27.324Z,81.64
2023-03-23T04:17:58.219Z,81.89
2023-03-23T04:20:32.204Z,81.71
2023-03-23T04:22:59.177Z,81.65
2023-03-23T04:25:26.208Z,81.66
2023-03-23T04:27:56.352Z,81.70
2023-03-23T04:30:25.771Z,81.98
2023-03-23T04:32:56.165Z,81.51
2023-03-23T04:35:30.222Z,81.44
2023-03-23T04:37:57.548Z,81.49
2023-03-23T04:40:25.207Z,81.67
2023-03-23T04:42:53.233Z,80.91
2023-03-23T04:45:22.628Z,81.02
2023-03-23T04:47:58.875Z,81.44
2023-03-23T04:50:31.772Z,81.55
2023-03-23T04:52:59.972Z,81.33
2023-03-23T04:55:27.405Z,80.98
2023-03-23T04:57:54.076Z,81.10
2023-03-23T05:00:21.956Z,81.26
2023-03-23T05:02:52.551Z,81.25
2023-03-23T05:05:21.464Z,80.92
2023-03-23T05:07:48.415Z,81.05
2023-03-23T05:10:25.218Z,80.95
2023-03-23T05:12:54.060Z,80.90
2023-03-23T05:15:20.802Z,81.00
2023-03-23T05:17:47.464Z,80.60
2023-03-23T05:20:19.386Z,80.31
2023-03-23T05:22:46.092Z,80.52
2023-03-23T05:25:12.755Z,80.35
2023-03-23T05:27:39.736Z,80.80
2023-03-23T05:30:07.799Z,80.36
2023-03-23T05:32:34.585Z,80.45
2023-03-23T05:35:02.162Z,80.20
2023-03-23T05:37:33.413Z,80.46
2023-03-23T05:40:06.226Z,80.40
2023-03-23T05:42:37.052Z,80.32
2023-03-23T05:45:08.137Z,80.85
2023-03-23T05:47:34.769Z,80.56
2023-03-23T05:50:01.943Z,80.63
2023-03-23T05:52:28.579Z,80.48
2023-03-23T05:54:55.362Z,80.41
2023-03-23T05:57:22.922Z,80.65
2023-03-23T05:59:50.120Z,80.43
2023-03-23T06:02:17.637Z,80.77
2023-03-23T06:04:44.545Z,80.17
2023-03-23T06:07:15.639Z,80.16
2023-03-23T06:09:42.918Z,80.82
2023-03-23T06:12:12.386Z,81.02
2023-03-23T06:14:39.608Z,79.93
2023-03-23T06:17:07.264Z,79.39
2023-03-23T06:19:35.403Z,79.39
2023-03-23T06:22:03.478Z,79.32
2023-03-23T06:24:30.364Z,79.48
2023-03-23T06:26:57.099Z,79.38
2023-03-23T06:29:24.270Z,79.12
2023-03-23T06:31:56.506Z,79.68
2023-03-23T06:34:24.271Z,79.52
2023-03-23T06:36:50.897Z,79.18
2023-03-23T06:39:20.530Z,79.07
2023-03-23T06:41:47.152Z,79.01
2023-03-23T06:44:14.499Z,79.01
2023-03-23T06:46:51.750Z,78.48
2023-03-23T06:49:21.199Z,78.41
2023-03-23T06:51:48.835Z,78.89
2023-03-23T06:54:16.088Z,78.72
2023-03-23T06:56:42.696Z,78.60
2023-03-23T06:59:10.480Z,77.94
2023-03-23T07:01:38.361Z,77.88
2023-03-23T07:04:05.208Z,77.98
2023-03-23T07:06:32.429Z,77.61
2023-03-23T07:08:59.423Z,77.37
2023-03-23T07:11:26.317Z,77.20
2023-03-23T07:13:53.104Z,76.70
2023-03-23T07:16:20.220Z,77.05
2023-03-23T07:18:47.185Z,77.33
2023-03-23T07:21:13.942Z,76.79
2023-03-23T07:23:41.318Z,77.05
2023-03-23T07:26:08.721Z,77.06
2023-03-23T07:28:35.468Z,76.87
2023-03-23T07:31:02.097Z,77.42
2023-03-23T07:33:28.673Z,77.05
2023-03-23T07:35:55.333Z,76.61
2023-03-23T07:38:22.014Z,76.56
2023-03-23T07:40:48.674Z,76.78
2023-03-23T07:43:15.287Z,76.95
2023-03-23T07:45:46.804Z,76.69
2023-03-23T07:48:21.120Z,76.42
2023-03-23T07:50:48.220Z,76.41
2023-03-23T07:53:14.831Z,76.41
2023-03-23T07:55:41.644Z,76.56
2023-03-23T07:58:08.411Z,76.58
2023-03-23T08:00:36.131Z,76.45
2023-03-23T08:03:07.169Z,75.99
2023-03-23T08:05:35.192Z,76.11
2023-03-23T08:08:02.509Z,76.26
2023-03-23T08:10:29.241Z,76.06
2023-03-23T08:12:57.413Z,75.80
2023-03-23T08:15:24.956Z,75.58
2023-03-23T08:17:52.474Z,75.91
2023-03-23T08:20:20.275Z,75.84
2023-03-23T08:22:53.813Z,74.77
2023-03-23T08:25:21.064Z,74.86
2023-03-23T08:27:47.948Z,75.09
2023-03-23T08:30:17.402Z,74.36
2023-03-23T08:32:44.623Z,73.99
2023-03-23T08:35:12.303Z,73.69
2023-03-23T08:37:39.916Z,73.31
2023-03-23T08:40:13.466Z,73.18
2023-03-23T08:42:43.789Z,72.43
2023-03-23T08:45:14.003Z,72.48
2023-03-23T08:47:41.573Z,72.61
2023-03-23T08:50:12.031Z,72.19
2023-03-23T08:52:39.080Z,72.88
2023-03-23T08:55:06.584Z,72.81
2023-03-23T08:57:33.257Z,72.65
2023-03-23T09:00:01.220Z,73.00
2023-03-23T09:02:29.495Z,72.38
2023-03-23T09:04:56.064Z,72.13
2023-03-23T09:07:22.696Z,71.61
2023-03-23T09:09:49.332Z,72.16
2023-03-23T09:12:16.774Z,72.11
2023-03-23T09:14:46.644Z,72.01
2023-03-23T09:17:13.870Z,72.08
2023-03-23T09:19:41.235Z,72.43
2023-03-23T09:22:09.263Z,72.40
2023-03-23T09:24:36.059Z,72.25
2023-03-23T09:27:02.690Z,71.88
2023-03-23T09:29:29.286Z,72.47
2023-03-23T09:31:57.326Z,71.98
2023-03-23T09:34:24.015Z,72.58
2023-03-23T09:36:50.914Z,73.93
2023-03-23T09:39:18.677Z,75.65
2023-03-23T09:42:09.297Z,79.60
2023-03-23T09:45:01.114Z,81.22
2023-03-23T09:48:09.908Z,81.74
2023-03-23T09:50:38.930Z,82.32
2023-03-23T09:53:15.826Z,81.84
2023-03-23T09:55:43.300Z,81.52
2023-03-23T09:58:28.343Z,83.37
2023-03-23T10:01:03.691Z,83.63
2023-03-23T10:03:40.827Z,83.55
2023-03-23T10:06:11.660Z,83.40
2023-03-23T10:08:56.772Z,84.24
2023-03-23T10:11:42.661Z,84.38
2023-03-23T10:14:30.776Z,84.62
2023-03-23T10:16:57.314Z,84.90
2023-03-23T10:19:47.574Z,84.83
2023-03-23T10:22:17.753Z,85.65
2023-03-23T10:24:52.236Z,85.79
2023-03-23T10:27:33.204Z,86.63
2023-03-23T10:30:15.754Z,86.08
2023-03-23T10:32:44.757Z,86.11
2023-03-23T10:35:17.335Z,85.80
2023-03-23T10:37:51.564Z,85.18
2023-03-23T10:40:25.060Z,83.28
2023-03-23T10:42:53.854Z,83.65
2023-03-23T10:45:27.448Z,83.40
2023-03-23T10:48:00.228Z,83.96
2023-03-23T10:50:33.468Z,84.34
2023-03-23T10:53:01.872Z,83.75
2023-03-23T10:55:40.734Z,84.39
2023-03-23T10:58:14.942Z,84.09
2023-03-23T11:00:48.387Z,84.09
2023-03-23T11:03:16.598Z,84.57
2023-03-23T11:05:54.286Z,84.72
2023-03-23T11:08:25.314Z,84.55
2023-03-23T11:10:56.018Z,85.21
2023-03-23T11:13:28.429Z,84.79
2023-03-23T11:15:55.037Z,85.35
2023-03-23T11:18:29.270Z,85.46
2023-03-23T11:20:59.291Z,84.95
2023-03-23T11:23:29.623Z,85.05
2023-03-23T11:25:58.633Z,84.95
2023-03-23T11:28:34.715Z,84.59
2023-03-23T11:31:04.689Z,84.88
2023-03-23T11:33:39.806Z,85.09
2023-03-23T11:36:08.445Z,86.22
2023-03-23T11:38:36.451Z,85.32
2023-03-23T11:41:13.401Z,85.46
2023-03-23T11:43:46.863Z,85.68
2023-03-23T11:46:31.526Z,85.65
2023-03-23T11:49:15.586Z,86.79
2023-03-23T11:51:57.161Z,87.01
2023-03-23T11:54:33.689Z,87.71
2023-03-23T11:57:00.840Z,87.67
2023-03-23T11:59:34.463Z,88.18
2023-03-23T12:02:16.901Z,88.64
2023-03-23T12:05:29.363Z,88.43
2023-03-23T12:08:14.917Z,88.48
2023-03-23T12:13:21.911Z,89.43
2023-03-23T12:15:59.502Z,89.14
2023-03-23T12:18:45.081Z,88.72
2023-03-23T12:21:33.931Z,88.88
2023-03-23T12:24:17.351Z,88.82
2023-03-23T12:27:35.013Z,89.62
2023-03-23T12:30:18.293Z,89.23
2023-03-23T12:33:26.203Z,89.88
2023-03-23T12:35:58.705Z,89.53
2023-03-23T12:38:43.272Z,90.19
2023-03-23T12:41:18.026Z,89.52
2023-03-23T12:44:00.216Z,89.40
2023-03-23T12:46:52.688Z,88.83
2023-03-23T12:49:48.852Z,89.40
2023-03-23T12:52:18.829Z,88.79
2023-03-23T12:54:56.240Z,88.55
2023-03-23T12:57:32.032Z,88.98
2023-03-23T13:00:12.355Z,89.20
2023-03-23T13:02:52.964Z,89.61
2023-03-23T13:05:25.641Z,89.43
2023-03-23T13:08:02.714Z,89.40
2023-03-23T13:10:51.966Z,88.84
2023-03-23T13:13:28.804Z,88.68
2023-03-23T13:16:02.749Z,89.05
2023-03-23T13:18:57.719Z,88.47
2023-03-23T13:21:39.684Z,88.27
2023-03-23T13:24:16.867Z,87.19
2023-03-23T13:26:44.904Z,87.56
2023-03-23T13:29:16.119Z,86.60
2023-03-23T13:31:45.917Z,86.24
2023-03-23T13:34:14.759Z,85.85
2023-03-23T13:36:45.230Z,85.77
2023-03-23T13:39:25.387Z,85.64
2023-03-23T13:42:00.997Z,85.22
2023-03-23T13:44:41.583Z,84.73
2023-03-23T13:47:21.832Z,85.04
2023-03-23T13:49:53.297Z,84.61
2023-03-23T13:52:43.247Z,83.84
2023-03-23T13:55:39.569Z,84.15
2023-03-23T13:58:06.947Z,84.31
2023-03-23T14:00:33.510Z,84.22
2023-03-23T14:03:18.744Z,85.13
2023-03-23T14:06:00.783Z,85.14
2023-03-23T14:08:30.777Z,84.83
2023-03-23T14:11:06.838Z,84.57
2023-03-23T14:13:38.922Z,85.01
2023-03-23T14:16:33.183Z,84.27
2023-03-23T14:19:02.724Z,84.44
2023-03-23T14:21:29.345Z,84.95
2023-03-23T14:24:00.631Z,85.02
2023-03-23T14:26:37.782Z,84.97
2023-03-23T14:29:06.873Z,84.60
2023-03-23T14:31:34.033Z,85.32
2023-03-23T14:34:05.203Z,85.43
2023-03-23T14:36:33.127Z,85.44
2023-03-23T14:39:08.549Z,85.44
2023-03-23T14:41:37.242Z,86.21
2023-03-23T14:44:07.445Z,85.49
2023-03-23T14:46:34.822Z,85.33
2023-03-23T14:49:06.871Z,84.14
2023-03-23T14:51:33.631Z,84.32
2023-03-23T14:54:01.985Z,83.38
2023-03-23T14:56:37.111Z,83.36
2023-03-23T14:59:07.588Z,82.53
2023-03-23T15:01:37.020Z,81.48
2023-03-23T15:04:12.701Z,80.92
2023-03-23T15:06:42.462Z,81.58
2023-03-23T15:09:15.080Z,80.50
2023-03-23T15:11:42.687Z,79.79
2023-03-23T15:14:55.865Z,79.30
2023-03-23T15:17:29.198Z,78.57
2023-03-23T15:19:56.889Z,77.47
2023-03-23T15:22:27.605Z,77.01
2023-03-23T15:25:11.761Z,77.09
2023-03-23T15:27:44.806Z,77.41
2023-03-23T15:30:20.631Z,76.75
2023-03-23T15:32:54.752Z,76.89
2023-03-23T15:35:24.678Z,76.97
2023-03-23T15:38:00.368Z,76.59
2023-03-23T15:40:36.874Z,77.23
2023-03-23T15:43:30.748Z,77.12
2023-03-23T15:46:06.913Z,76.88
2023-03-23T15:48:50.618Z,76.37
2023-03-23T15:51:19.266Z,76.28
2023-03-23T15:53:46.345Z,76.91
2023-03-23T15:56:14.762Z,77.28
2023-03-23T15:58:43.180Z,76.81
2023-03-23T16:01:27.322Z,77.09
2023-03-23T16:04:06.237Z,76.85
2023-03-23T16:06:34.630Z,76.83
2023-03-23T16:09:01.737Z,76.60
2023-03-23T16:11:31.487Z,76.72
2023-03-23T16:13:59.038Z,76.54
2023-03-23T16:16:31.369Z,76.25
2023-03-23T16:18:58.201Z,76.39
2023-03-23T16:21:25.034Z,76.67
2023-03-23T16:23:51.817Z,76.54
2023-03-23T16:26:18.533Z,77.14
2023-03-23T16:28:45.721Z,76.60
2023-03-23T16:31:12.448Z,76.85
2023-03-23T16:33:39.250Z,76.56
2023-03-23T16:36:06.735Z,76.98
2023-03-23T16:38:33.838Z,76.53
2023-03-23T16:41:16.849Z,76.96
2023-03-23T16:43:46.384Z,76.80
2023-03-23T16:46:14.369Z,76.67
2023-03-23T16:48:41.167Z,76.55
2023-03-23T16:51:08.496Z,76.91
2023-03-23T16:53:36.194Z,77.16
2023-03-23T16:56:03.306Z,76.88
2023-03-23T16:58:30.033Z,76.94
2023-03-23T17:00:56.939Z,76.82
2023-03-23T17:03:23.718Z,76.83
2023-03-23T17:05:51.904Z,77.45
2023-03-23T17:08:19.972Z,77.70
2023-03-23T17:10:47.942Z,77.49
2023-03-23T17:13:14.746Z,77.45
2023-03-23T17:15:44.530Z,76.79
2023-03-23T17:18:13.028Z,76.57
2023-03-23T17:20:40.045Z,75.91
2023-03-23T17:23:06.725Z,76.48
2023-03-23T17:25:33.399Z,77.30
2023-03-23T17:28:05.660Z,78.03
2023-03-23T17:30:33.834Z,78.66
2023-03-23T17:33:00.717Z,78.74
2023-03-23T17:35:27.487Z,77.58
2023-03-23T17:37:54.051Z,77.74
2023-03-23T17:40:24.714Z,77.77
2023-03-23T17:42:51.361Z,77.97
2023-03-23T17:46:19.680Z,76.67
2023-03-23T17:48:49.388Z,75.32
2023-03-23T17:51:16.277Z,75.71
2023-03-23T17:53:42.901Z,76.00
2023-03-23T17:56:10.106Z,74.85
2023-03-23T17:58:36.954Z,73.98
2023-03-23T18:01:05.212Z,73.65
2023-03-23T18:03:32.451Z,73.68
2023-03-23T18:06:05.893Z,72.82
2023-03-23T18:08:32.931Z,73.14
2023-03-23T18:10:59.592Z,73.68
2023-03-23T18:13:27.533Z,73.45
2023-03-23T18:15:56.111Z,72.99
2023-03-23T18:18:24.206Z,73.12
2023-03-23T18:20:56.514Z,72.85
2023-03-23T18:23:26.243Z,72.42
2023-03-23T18:25:56.065Z,72.00
2023-03-23T18:28:23.165Z,72.04
2023-03-23T18:30:49.773Z,71.92
2023-03-23T18:33:19.003Z,71.50
2023-03-23T18:35:47.385Z,71.73
2023-03-23T18:38:14.550Z,71.74
2023-03-23T18:40:46.843Z,71.04
2023-03-23T18:43:14.117Z,71.35
2023-03-23T18:45:41.140Z,70.96
2023-03-23T18:48:09.643Z,70.54
2023-03-23T18:50:36.652Z,70.03
2023-03-23T18:53:03.558Z,70.22
2023-03-23T18:55:30.403Z,70.44
2023-03-23T18:58:00.306Z,70.06
2023-03-23T19:00:27.464Z,70.17
2023-03-23T19:02:54.220Z,70.24
2023-03-23T19:05:20.987Z,70.73
2023-03-23T19:07:47.624Z,70.32
2023-03-23T19:10:14.372Z,70.16
2023-03-23T19:12:41.714Z,70.30
2023-03-23T19:15:08.470Z,70.42
2023-03-23T19:17:36.597Z,70.37
2023-03-23T19:20:05.256Z,70.19
2023-03-23T19:22:32.829Z,70.68
2023-03-23T19:24:59.631Z,70.80
2023-03-23T19:27:28.992Z,70.89
2023-03-23T19:29:55.815Z,70.64
2023-03-23T19:32:22.514Z,70.99
2023-03-23T19:34:51.039Z,71.01
2023-03-23T19:37:17.892Z,70.89
2023-03-23T19:39:44.778Z,71.06
2023-03-23T19:42:16.929Z,70.91
2023-03-23T19:44:43.902Z,70.80
2023-03-23T19:47:10.932Z,70.70
2023-03-23T19:49:38.939Z,71.15
2023-03-23T19:52:12.758Z,71.50
2023-03-23T19:54:41.107Z,71.31
2023-03-23T19:57:08.931Z,71.15
2023-03-23T19:59:36.478Z,71.76
2023-03-23T20:02:03.858Z,71.20
2023-03-23T20:04:30.731Z,71.53
2023-03-23T20:06:59.142Z,71.02
2023-03-23T20:09:26.221Z,71.44
2023-03-23T20:11:53.559Z,71.16
2023-03-23T20:14:20.786Z,71.35
2023-03-23T20:16:47.384Z,71.11
2023-03-23T20:19:14.130Z,71.49
2023-03-23T20:21:40.881Z,71.06
2023-03-23T20:24:07.701Z,71.55
2023-03-23T20:26:38.851Z,71.59
2023-03-23T20:29:07.718Z,71.46
2023-03-23T20:31:37.517Z,71.30
2023-03-23T20:34:10.166Z,71.33
2023-03-23T20:36:42.517Z,71.58
2023-03-23T20:39:12.669Z,71.68
2023-03-23T20:41:40.526Z,71.83
2023-03-23T20:44:14.088Z,71.40
2023-03-23T20:46:45.999Z,71.76
2023-03-23T20:49:13.279Z,71.70
2023-03-23T20:51:40.828Z,71.51
2023-03-23T20:54:07.775Z,71.98
2023-03-23T20:56:34.661Z,71.36
2023-03-23T20:59:02.053Z,71.93
2023-03-23T21:01:28.910Z,71.92
2023-03-23T21:03:57.145Z,72.12
2023-03-23T21:06:28.488Z,72.88
2023-03-23T21:08:56.628Z,73.29
2023-03-23T21:11:26.546Z,73.85
2023-03-23T21:13:53.443Z,74.34
2023-03-23T21:16:20.376Z,75.46
2023-03-23T21:18:47.758Z,75.85
2023-03-23T21:21:15.132Z,76.98
2023-03-23T21:23:46.709Z,76.88
2023-03-23T21:26:17.349Z,77.59
2023-03-23T21:28:44.972Z,77.73
2023-03-23T21:31:12.933Z,78.12
2023-03-23T21:33:39.532Z,78.48
2023-03-23T21:36:07.139Z,78.20
2023-03-23T21:38:35.240Z,78.56
2023-03-23T21:41:10.749Z,78.49
2023-03-23T21:43:38.309Z,78.98
2023-03-23T21:46:06.118Z,79.31
2023-03-23T21:48:35.689Z,79.47
2023-03-23T21:51:11.803Z,80.03
2023-03-23T21:53:38.446Z,79.88
2023-03-23T21:56:07.454Z,79.71
2023-03-23T21:58:34.525Z,79.85
2023-03-23T22:01:02.262Z,80.20
2023-03-23T22:03:33.292Z,80.15
2023-03-23T22:06:11.845Z,79.66
2023-03-23T22:08:40.432Z,79.52
2023-03-23T22:11:13.183Z,79.69
2023-03-23T22:13:41.191Z,80.62
2023-03-23T22:16:11.766Z,80.10
2023-03-23T22:18:39.137Z,80.25
2023-03-23T22:21:07.506Z,80.40
2023-03-23T22:23:35.882Z,80.61
2023-03-23T22:26:02.800Z,81.61
2023-03-23T22:28:31.284Z,82.10
2023-03-23T22:31:07.624Z,82.65
2023-03-23T22:33:35.264Z,82.57
2023-03-23T22:36:06.808Z,82.88
2023-03-23T22:38:35.654Z,83.53
2023-03-23T22:41:04.701Z,84.08
2023-03-23T22:43:31.465Z,84.61
2023-03-23T22:45:58.383Z,84.59
2023-03-23T22:48:26.997Z,85.43
2023-03-23T22:50:54.346Z,85.70
2023-03-23T22:53:23.899Z,85.80
2023-03-23T22:55:54.620Z,86.21
2023-03-23T22:58:22.275Z,87.09
2023-03-23T23:00:55.088Z,87.24
2023-03-23T23:03:21.900Z,87.84
2023-03-23T23:05:51.418Z,87.52
2023-03-23T23:08:18.390Z,88.04
2023-03-23T23:10:47.851Z,87.64
2023-03-23T23:13:15.268Z,88.26
2023-03-23T23:15:45.228Z,89.14
2023-03-23T23:18:12.564Z,88.65
2023-03-23T23:20:39.806Z,89.19
2023-03-23T23:23:06.514Z,89.16
2023-03-23T23:25:34.042Z,89.57
2023-03-23T23:28:02.102Z,89.39
2023-03-23T23:30:29.459Z,89.60
2023-03-23T23:32:56.981Z,89.69
2023-03-23T23:35:24.086Z,89.67
2023-03-23T23:37:51.266Z,89.64
2023-03-23T23:40:19.465Z,90.12
2023-03-23T23:42:54.133Z,90.06
2023-03-23T23:45:21.978Z,90.31
2023-03-23T23:47:52.137Z,90.10
2023-03-23T23:50:19.238Z,90.04
2023-03-23T23:52:46.810Z,90.19
2023-03-23T23:55:16.078Z,90.82
2023-03-23T23:57:44.666Z,90.81
